Aviation Digital Data Service (ADDS)

Output produced by METARs form (0152 UTC 22 June 2018)
found at http://www.aviationweather.gov/adds/metars/
 
EFHA 220120Z AUTO 01004KT 9999 -RA OVC003 13/13 Q0989 RERA
EFHA 220050Z AUTO 02007KT 9000 -RA OVC004 13/13 Q0990 RERA
EFHA 220020Z AUTO 05006KT 010V080 9000 RA BKN004 OVC020 13/13 Q0991
EFHA 212350Z AUTO 06007KT 6000 RA OVC004 13/13 Q0992 RERA
EFHA 212320Z AUTO 06006KT 6000 TSRA OVC003 13/13 Q0994 RERA RETSRA
EFHA 212250Z AUTO 05006KT 4400 RA OVC003 13/13 Q0995
EFHA 212220Z AUTO 08004KT 9000 RA OVC004 13/13 Q0996
EFHA 212150Z AUTO 07005KT 9000 RA OVC003 13/13 Q0996
EFHA 212120Z AUTO 11004KT 070V140 7000 RA OVC004 13/12 Q0997
EFHA 212050Z AUTO 10006KT 9999 -RA OVC004 13/12 Q0997
EFHA 211950Z AUTO 10007KT 060V130 9999 OVC002 12/12 Q0998
EFHA 211920Z AUTO 08008KT 5000 OVC003 12/12 Q0999
EFHA 211850Z AUTO 09004KT 050V130 4400 BR OVC008 12/11 Q1000
EFHA 211820Z AUTO 08004KT 9000 -SHRA BKN016 OVC038 12/11 Q1000
EFHA 211750Z AUTO 09004KT 9999 OVC027 12/10 Q1000
EFHA 211720Z AUTO 08006KT 9999 OVC032 12/09 Q1001
EFHA 211650Z AUTO 04006KT 9999 OVC036 12/09 Q1001
EFHA 211620Z AUTO 06006KT 9999 -RA OVC041 13/09 Q1001 RERA
EFHA 211550Z AUTO 06004KT 9999 RA OVC043 13/10 Q1002
EFHA 211520Z AUTO 08004KT 9999 SHRA OVC045 13/09 Q1002
EFHA 211450Z AUTO 08004KT 050V130 9999 -SHRA OVC050 14/08 Q1002
EFHA 211350Z AUTO 14012KT 110V180 9999 -RA OVC058 15/03 Q1003
EFHA 211320Z AUTO 18009KT CAVOK 16/04 Q1003
EFHA 211250Z AUTO 14007KT 110V190 CAVOK 17/02 Q1002
EFHA 211220Z AUTO 13008KT CAVOK 17/M01 Q1002
EFHA 211150Z AUTO 13010KT CAVOK 17/M01 Q1003
EFHA 211120Z AUTO 15008KT 110V180 CAVOK 18/00 Q1003
EFHA 211050Z AUTO 14009KT CAVOK 19/01 Q1003
EFHA 211020Z 15007KT 110V190 CAVOK 18/02 Q1003
EFHA 210950Z 13005KT 020V190 CAVOK 18/01 Q1003
EFHA 210920Z 13005KT 020V190 CAVOK 18/01 Q1003
EFHA 210850Z 16007KT 120V250 CAVOK 18/01 Q1004
EFHA 210820Z 12006KT 090V180 CAVOK 17/01 Q1004
EFHA 210750Z 16005KT 070V210 CAVOK 17/02 Q1004
EFHA 210720Z 16004KT 120V220 CAVOK 16/02 Q1004
EFHA 210650Z 14006KT 090V170 CAVOK 16/03 Q1004
EFHA 210620Z 14005KT 100V190 CAVOK 15/05 Q1004
EFHA 210550Z 15006KT CAVOK 15/06 Q1005
EFHA 210520Z AUTO VRB03KT 120V200 CAVOK 14/06 Q1004
EFHA 210450Z AUTO 18004KT 150V230 CAVOK 14/04 Q1005
EFHA 210420Z AUTO 15003KT CAVOK 12/06 Q1005
EFHA 210350Z AUTO 15004KT CAVOK 11/05 Q1005
EFHA 210320Z AUTO 14004KT CAVOK 10/06 Q1005
EFHA 210250Z AUTO 14003KT CAVOK 09/06 Q1004
EFHA 210220Z AUTO 14003KT CAVOK 09/06 Q1004
EFHA 210150Z AUTO 15005KT CAVOK 08/05 Q1004
EFHA 210120Z AUTO 15006KT CAVOK 08/05 Q1005
EFHA 210050Z AUTO 14003KT CAVOK 07/03 Q1005
EFHA 202350Z AUTO VRB02KT CAVOK 08/04 Q1005
EFHA 202320Z AUTO 00000KT CAVOK 09/01 Q1005
EFHA 202250Z AUTO 25006KT CAVOK 08/01 Q1005
EFHA 202220Z AUTO 25006KT CAVOK 10/01 Q1005
EFHA 202150Z AUTO 25006KT CAVOK 10/01 Q1005
EFHA 202120Z AUTO 24007KT CAVOK 11/01 Q1005
EFHA 202050Z AUTO 25008KT CAVOK 12/01 Q1005
EFHA 202020Z AUTO 24007KT CAVOK 12/00 Q1005
EFHA 201950Z AUTO 23007KT CAVOK 13/01 Q1005
EFHA 201920Z AUTO 24007KT CAVOK 14/01 Q1005
EFHA 201850Z AUTO 25010KT CAVOK 15/01 Q1005
EFHA 201820Z AUTO 24010KT CAVOK 16/00 Q1004
EFHA 201750Z AUTO 26014KT CAVOK 16/00 Q1005
EFHA 201720Z AUTO 27014KT CAVOK 17/01 Q1005
EFHA 201650Z AUTO 25015KT CAVOK 18/01 Q1005
EFHA 201620Z AUTO 25014KT CAVOK 18/01 Q1005
EFHA 201550Z AUTO 26014KT CAVOK 19/01 Q1005
EFHA 201520Z AUTO 27013KT 230V300 CAVOK 19/01 Q1004
EFHA 201450Z AUTO 26017KT CAVOK 18/01 Q1004
EFHA 201420Z AUTO 27015KT CAVOK 18/01 Q1004